Terminal Aerodrome Forecast
Issued by NWS Des Moines, IA

Home | Current Version | Previous Version | Text Only | Print | Product List | Glossary On
Versions: 1 2 3 4 5 6 7 8 9 10 11 12 13 14 15 16 17 18 19 20 21 22 23 24 25 26 27 28 29 30 31 32 33 34 35 36
000
FTUS43 KDMX 291736
TAFDSM
TAF
KDSM 291736Z 2918/3018 20011KT P6SM FEW040 SCT120
     FM292100 23009KT P6SM VCTS SCT030CB BKN050 OVC100
      TEMPO 2922/3002 22015G25KT 3SM TSRA BKN025CB
     FM300300 25006KT 6SM BR VCSH SCT020 BKN035 OVC070
     FM300700 28004KT 3SM BR SCT008 BKN014
     FM301500 27008KT 6SM BR SCT012=

USA.gov is the U.S. government's official web portal to all federal, state and local government web resources and services.